sensor_id;sensor_type;location;lat;lon;timestamp;P1;durP1;ratioP1;P2;durP2;ratioP2
80868;SDS011;70295;40.182;44.498;2023-07-22T00:01:12;7.7;;;3.8;;
80868;SDS011;70295;40.182;44.498;2023-07-22T00:03:12;11.5;;;4.6;;
80868;SDS011;70295;40.182;44.498;2023-07-22T00:05:12;9.3;;;4.3;;
80868;SDS011;70295;40.182;44.498;2023-07-22T00:07:11;11.4;;;4.3;;
80868;SDS011;70295;40.182;44.498;2023-07-22T00:09:11;12.3;;;4.3;;
80868;SDS011;70295;40.182;44.498;2023-07-22T00:11:12;11.2;;;4.4;;
80868;SDS011;70295;40.182;44.498;2023-07-22T00:13:11;12.3;;;4.6;;
80868;SDS011;70295;40.182;44.498;2023-07-22T00:15:12;14.8;;;4.5;;
80868;SDS011;70295;40.182;44.498;2023-07-22T00:17:12;13.1;;;4.4;;
80868;SDS011;70295;40.182;44.498;2023-07-22T00:19:12;11.9;;;4.1;;
80868;SDS011;70295;40.182;44.498;2023-07-22T00:21:11;13.9;;;4.2;;
80868;SDS011;70295;40.182;44.498;2023-07-22T00:23:12;14.5;;;4.8;;
80868;SDS011;70295;40.182;44.498;2023-07-22T00:25:13;14.8;;;4.8;;
80868;SDS011;70295;40.182;44.498;2023-07-22T00:27:12;11.5;;;4;;
80868;SDS011;70295;40.182;44.498;2023-07-22T00:29:11;12.2;;;4.6;;
80868;SDS011;70295;40.182;44.498;2023-07-22T00:31:11;12.2;;;4.7;;
80868;SDS011;70295;40.182;44.498;2023-07-22T00:33:12;13.9;;;5.3;;
80868;SDS011;70295;40.182;44.498;2023-07-22T00:35:12;14.3;;;4.7;;
80868;SDS011;70295;40.182;44.498;2023-07-22T00:37:11;14;;;4.6;;
80868;SDS011;70295;40.182;44.498;2023-07-22T00:39:12;13.6;;;4.4;;
80868;SDS011;70295;40.182;44.498;2023-07-22T00:41:11;8;;;4.2;;
80868;SDS011;70295;40.182;44.498;2023-07-22T00:43:12;11;;;4.4;;
80868;SDS011;70295;40.182;44.498;2023-07-22T00:45:12;11.3;;;4.4;;
80868;SDS011;70295;40.182;44.498;2023-07-22T00:47:11;10.5;;;5.1;;
80868;SDS011;70295;40.182;44.498;2023-07-22T00:49:12;13.2;;;5.5;;
80868;SDS011;70295;40.182;44.498;2023-07-22T00:51:11;12.7;;;5.5;;
80868;SDS011;70295;40.182;44.498;2023-07-22T00:53:12;13.7;;;5.8;;
80868;SDS011;70295;40.182;44.498;2023-07-22T00:55:12;12.9;;;6.3;;
80868;SDS011;70295;40.182;44.498;2023-07-22T00:57:12;13.3;;;6;;
80868;SDS011;70295;40.182;44.498;2023-07-22T00:59:12;13.1;;;6.3;;
80868;SDS011;70295;40.182;44.498;2023-07-22T01:01:12;11.9;;;5.9;;
80868;SDS011;70295;40.182;44.498;2023-07-22T01:03:12;10.4;;;6.1;;
80868;SDS011;70295;40.182;44.498;2023-07-22T01:05:12;10.9;;;5.8;;
80868;SDS011;70295;40.182;44.498;2023-07-22T01:07:12;12.7;;;6.5;;
80868;SDS011;70295;40.182;44.498;2023-07-22T01:09:12;13.9;;;5.9;;
80868;SDS011;70295;40.182;44.498;2023-07-22T01:11:12;14.9;;;6.7;;
80868;SDS011;70295;40.182;44.498;2023-07-22T01:13:11;11.1;;;6.1;;
80868;SDS011;70295;40.182;44.498;2023-07-22T01:15:12;13;;;6.3;;
80868;SDS011;70295;40.182;44.498;2023-07-22T01:17:12;14.8;;;6.7;;
80868;SDS011;70295;40.182;44.498;2023-07-22T01:19:13;12.9;;;6.2;;
80868;SDS011;70295;40.182;44.498;2023-07-22T01:21:12;11.2;;;5.4;;
80868;SDS011;70295;40.182;44.498;2023-07-22T01:23:11;11.1;;;5.6;;
80868;SDS011;70295;40.182;44.498;2023-07-22T01:25:12;11.4;;;4.7;;
80868;SDS011;70295;40.182;44.498;2023-07-22T01:27:12;9.5;;;4.8;;
80868;SDS011;70295;40.182;44.498;2023-07-22T01:29:11;10.5;;;5;;
80868;SDS011;70295;40.182;44.498;2023-07-22T01:31:12;9.4;;;5.4;;
80868;SDS011;70295;40.182;44.498;2023-07-22T01:33:11;11;;;5.1;;
80868;SDS011;70295;40.182;44.498;2023-07-22T01:35:12;12.7;;;5.2;;
80868;SDS011;70295;40.182;44.498;2023-07-22T01:37:12;8.6;;;4.8;;
80868;SDS011;70295;40.182;44.498;2023-07-22T01:39:11;11.6;;;5;;
80868;SDS011;70295;40.182;44.498;2023-07-22T01:41:12;9.3;;;5;;
80868;SDS011;70295;40.182;44.498;2023-07-22T01:43:11;10.6;;;5.2;;
80868;SDS011;70295;40.182;44.498;2023-07-22T01:45:12;12.6;;;4.9;;
80868;SDS011;70295;40.182;44.498;2023-07-22T01:47:12;9.1;;;4.8;;
80868;SDS011;70295;40.182;44.498;2023-07-22T01:49:13;8.1;;;4.8;;
80868;SDS011;70295;40.182;44.498;2023-07-22T01:51:12;9.1;;;4.8;;
80868;SDS011;70295;40.182;44.498;2023-07-22T01:53:11;12.3;;;4.9;;
80868;SDS011;70295;40.182;44.498;2023-07-22T01:55:11;9.9;;;4.6;;
80868;SDS011;70295;40.182;44.498;2023-07-22T01:57:11;9.6;;;5.4;;
80868;SDS011;70295;40.182;44.498;2023-07-22T01:59:12;12.6;;;4.8;;
80868;SDS011;70295;40.182;44.498;2023-07-22T02:01:11;11;;;4.9;;
80868;SDS011;70295;40.182;44.498;2023-07-22T02:03:11;9.9;;;4.9;;
80868;SDS011;70295;40.182;44.498;2023-07-22T02:05:11;10.9;;;4.9;;
80868;SDS011;70295;40.182;44.498;2023-07-22T02:07:12;10;;;4.6;;
80868;SDS011;70295;40.182;44.498;2023-07-22T02:09:11;9.8;;;4.6;;
80868;SDS011;70295;40.182;44.498;2023-07-22T02:11:11;8.2;;;4.6;;
80868;SDS011;70295;40.182;44.498;2023-07-22T02:13:12;8.8;;;4.3;;
80868;SDS011;70295;40.182;44.498;2023-07-22T02:15:12;10.9;;;4.7;;
80868;SDS011;70295;40.182;44.498;2023-07-22T02:17:11;8;;;4.3;;
80868;SDS011;70295;40.182;44.498;2023-07-22T02:19:11;8.6;;;4.2;;
80868;SDS011;70295;40.182;44.498;2023-07-22T02:21:12;9.2;;;4.3;;
80868;SDS011;70295;40.182;44.498;2023-07-22T02:23:12;6.6;;;3.6;;
80868;SDS011;70295;40.182;44.498;2023-07-22T02:25:11;5.8;;;3.8;;
80868;SDS011;70295;40.182;44.498;2023-07-22T02:27:11;7.4;;;4;;
80868;SDS011;70295;40.182;44.498;2023-07-22T02:29:11;6.7;;;3.9;;
80868;SDS011;70295;40.182;44.498;2023-07-22T02:31:11;7.9;;;3.9;;
80868;SDS011;70295;40.182;44.498;2023-07-22T02:33:11;7;;;3.9;;
80868;SDS011;70295;40.182;44.498;2023-07-22T02:35:12;7.1;;;3.7;;
80868;SDS011;70295;40.182;44.498;2023-07-22T02:37:11;5.5;;;3.3;;
80868;SDS011;70295;40.182;44.498;2023-07-22T02:39:12;5.9;;;3.5;;
80868;SDS011;70295;40.182;44.498;2023-07-22T02:41:11;6.4;;;3.7;;
80868;SDS011;70295;40.182;44.498;2023-07-22T02:43:11;6.5;;;4.1;;
80868;SDS011;70295;40.182;44.498;2023-07-22T02:45:12;7.9;;;3.7;;
80868;SDS011;70295;40.182;44.498;2023-07-22T02:47:11;7;;;3.5;;
80868;SDS011;70295;40.182;44.498;2023-07-22T02:49:12;7;;;4;;
80868;SDS011;70295;40.182;44.498;2023-07-22T02:51:12;10.8;;;3.9;;
80868;SDS011;70295;40.182;44.498;2023-07-22T02:53:11;7.2;;;3.9;;
80868;SDS011;70295;40.182;44.498;2023-07-22T02:55:14;6.7;;;3.6;;
80868;SDS011;70295;40.182;44.498;2023-07-22T02:57:11;7.6;;;3.4;;
80868;SDS011;70295;40.182;44.498;2023-07-22T02:59:11;7.3;;;3.5;;
80868;SDS011;70295;40.182;44.498;2023-07-22T03:01:11;8.5;;;3.4;;
80868;SDS011;70295;40.182;44.498;2023-07-22T03:03:11;6.9;;;3.4;;
80868;SDS011;70295;40.182;44.498;2023-07-22T03:05:12;8.6;;;3.8;;
80868;SDS011;70295;40.182;44.498;2023-07-22T03:07:11;5.6;;;3.6;;
80868;SDS011;70295;40.182;44.498;2023-07-22T03:09:11;7.9;;;3.8;;
80868;SDS011;70295;40.182;44.498;2023-07-22T03:11:11;8;;;3.6;;
80868;SDS011;70295;40.182;44.498;2023-07-22T03:13:11;6.3;;;3.5;;
80868;SDS011;70295;40.182;44.498;2023-07-22T03:15:11;8.7;;;4;;
80868;SDS011;70295;40.182;44.498;2023-07-22T03:17:11;7.9;;;3.6;;
80868;SDS011;70295;40.182;44.498;2023-07-22T03:19:11;9.3;;;4.2;;
80868;SDS011;70295;40.182;44.498;2023-07-22T03:21:11;6.6;;;4;;
80868;SDS011;70295;40.182;44.498;2023-07-22T03:23:11;8.8;;;4.8;;
80868;SDS011;70295;40.182;44.498;2023-07-22T03:25:12;10.2;;;4;;
80868;SDS011;70295;40.182;44.498;2023-07-22T03:27:11;6.2;;;3.6;;
80868;SDS011;70295;40.182;44.498;2023-07-22T03:29:12;9;;;3.6;;
80868;SDS011;70295;40.182;44.498;2023-07-22T03:31:11;9.5;;;3.8;;
80868;SDS011;70295;40.182;44.498;2023-07-22T03:33:11;6.9;;;4.1;;
80868;SDS011;70295;40.182;44.498;2023-07-22T03:35:12;9;;;4;;
80868;SDS011;70295;40.182;44.498;2023-07-22T03:37:11;8.3;;;3.9;;
80868;SDS011;70295;40.182;44.498;2023-07-22T03:39:11;8.2;;;4;;
80868;SDS011;70295;40.182;44.498;2023-07-22T03:41:11;10.5;;;4.2;;
80868;SDS011;70295;40.182;44.498;2023-07-22T03:43:11;9;;;4;;
80868;SDS011;70295;40.182;44.498;2023-07-22T03:45:11;7.6;;;4;;
80868;SDS011;70295;40.182;44.498;2023-07-22T03:47:11;8.5;;;3.9;;
80868;SDS011;70295;40.182;44.498;2023-07-22T03:49:11;9.6;;;4;;
80868;SDS011;70295;40.182;44.498;2023-07-22T03:51:12;8.9;;;3.9;;
80868;SDS011;70295;40.182;44.498;2023-07-22T03:53:11;7.2;;;3.7;;
80868;SDS011;70295;40.182;44.498;2023-07-22T03:55:12;9.2;;;3.7;;
80868;SDS011;70295;40.182;44.498;2023-07-22T03:57:11;8.7;;;3.6;;
80868;SDS011;70295;40.182;44.498;2023-07-22T03:59:11;6.9;;;3.2;;
80868;SDS011;70295;40.182;44.498;2023-07-22T04:01:13;9.7;;;3.5;;
80868;SDS011;70295;40.182;44.498;2023-07-22T04:03:11;8.3;;;3.5;;
80868;SDS011;70295;40.182;44.498;2023-07-22T04:05:11;7.8;;;3.5;;
80868;SDS011;70295;40.182;44.498;2023-07-22T04:07:11;8.9;;;3.4;;
80868;SDS011;70295;40.182;44.498;2023-07-22T04:09:11;7.9;;;3.3;;
80868;SDS011;70295;40.182;44.498;2023-07-22T04:11:11;8.9;;;3.7;;
80868;SDS011;70295;40.182;44.498;2023-07-22T04:13:11;7;;;3.5;;
80868;SDS011;70295;40.182;44.498;2023-07-22T04:15:12;7.7;;;3.7;;
80868;SDS011;70295;40.182;44.498;2023-07-22T04:17:11;7.9;;;4.3;;
80868;SDS011;70295;40.182;44.498;2023-07-22T04:19:11;10.1;;;4.6;;
80868;SDS011;70295;40.182;44.498;2023-07-22T04:21:11;9.4;;;4.6;;
80868;SDS011;70295;40.182;44.498;2023-07-22T04:23:11;13.7;;;5.1;;
80868;SDS011;70295;40.182;44.498;2023-07-22T04:25:11;11.9;;;4.7;;
80868;SDS011;70295;40.182;44.498;2023-07-22T04:27:11;13.4;;;5.6;;
80868;SDS011;70295;40.182;44.498;2023-07-22T04:29:11;14.8;;;4.8;;
80868;SDS011;70295;40.182;44.498;2023-07-22T04:31:11;10.6;;;5.1;;
80868;SDS011;70295;40.182;44.498;2023-07-22T04:33:11;12.8;;;4.6;;
80868;SDS011;70295;40.182;44.498;2023-07-22T04:35:11;11.8;;;4.7;;
80868;SDS011;70295;40.182;44.498;2023-07-22T04:37:11;14.1;;;4.8;;
80868;SDS011;70295;40.182;44.498;2023-07-22T04:39:11;13.6;;;4.5;;
80868;SDS011;70295;40.182;44.498;2023-07-22T04:41:11;10.4;;;4.3;;
80868;SDS011;70295;40.182;44.498;2023-07-22T04:43:11;10.7;;;4.3;;
80868;SDS011;70295;40.182;44.498;2023-07-22T04:45:12;10;;;3.8;;
80868;SDS011;70295;40.182;44.498;2023-07-22T04:47:11;12.9;;;4.4;;
80868;SDS011;70295;40.182;44.498;2023-07-22T04:49:11;8.2;;;4.3;;
80868;SDS011;70295;40.182;44.498;2023-07-22T04:51:11;8.6;;;4.2;;
80868;SDS011;70295;40.182;44.498;2023-07-22T04:53:12;9.1;;;4.3;;
80868;SDS011;70295;40.182;44.498;2023-07-22T04:55:11;9.3;;;4.5;;
80868;SDS011;70295;40.182;44.498;2023-07-22T04:57:11;7.2;;;4.2;;
80868;SDS011;70295;40.182;44.498;2023-07-22T04:59:11;9;;;3.7;;
80868;SDS011;70295;40.182;44.498;2023-07-22T05:01:11;8.5;;;3.9;;
80868;SDS011;70295;40.182;44.498;2023-07-22T05:03:11;9;;;4.1;;
80868;SDS011;70295;40.182;44.498;2023-07-22T05:05:11;7.8;;;4;;
80868;SDS011;70295;40.182;44.498;2023-07-22T05:07:11;9.8;;;4;;
80868;SDS011;70295;40.182;44.498;2023-07-22T05:09:11;8.7;;;4.9;;
80868;SDS011;70295;40.182;44.498;2023-07-22T05:11:11;10.1;;;4.5;;
80868;SDS011;70295;40.182;44.498;2023-07-22T05:13:11;9.1;;;4.4;;
80868;SDS011;70295;40.182;44.498;2023-07-22T05:15:13;6.6;;;3.8;;
80868;SDS011;70295;40.182;44.498;2023-07-22T05:17:11;7;;;3.6;;
80868;SDS011;70295;40.182;44.498;2023-07-22T05:19:12;5.8;;;2.8;;
80868;SDS011;70295;40.182;44.498;2023-07-22T05:21:11;8.5;;;4.1;;
80868;SDS011;70295;40.182;44.498;2023-07-22T05:23:11;6.4;;;3.8;;
80868;SDS011;70295;40.182;44.498;2023-07-22T05:25:11;8;;;3.8;;
80868;SDS011;70295;40.182;44.498;2023-07-22T05:27:11;5.8;;;3.4;;
80868;SDS011;70295;40.182;44.498;2023-07-22T05:29:11;5.6;;;3.3;;
80868;SDS011;70295;40.182;44.498;2023-07-22T05:31:11;7.1;;;3;;
80868;SDS011;70295;40.182;44.498;2023-07-22T05:33:11;6.9;;;3.6;;
80868;SDS011;70295;40.182;44.498;2023-07-22T05:35:11;7.5;;;3.7;;
80868;SDS011;70295;40.182;44.498;2023-07-22T05:37:11;8.1;;;4.1;;
80868;SDS011;70295;40.182;44.498;2023-07-22T05:39:11;10.6;;;4.4;;
80868;SDS011;70295;40.182;44.498;2023-07-22T05:41:11;9.2;;;4.1;;
80868;SDS011;70295;40.182;44.498;2023-07-22T05:43:11;5.8;;;3.8;;
80868;SDS011;70295;40.182;44.498;2023-07-22T05:45:11;7.4;;;3.5;;
80868;SDS011;70295;40.182;44.498;2023-07-22T05:47:11;9;;;3.7;;
80868;SDS011;70295;40.182;44.498;2023-07-22T05:49:11;12.8;;;5.4;;
80868;SDS011;70295;40.182;44.498;2023-07-22T05:51:11;12;;;5.3;;
80868;SDS011;70295;40.182;44.498;2023-07-22T05:53:11;9.4;;;4.7;;
80868;SDS011;70295;40.182;44.498;2023-07-22T05:55:11;11.2;;;4.9;;
80868;SDS011;70295;40.182;44.498;2023-07-22T05:57:11;8.7;;;4.4;;
80868;SDS011;70295;40.182;44.498;2023-07-22T05:59:11;5.7;;;3.9;;
80868;SDS011;70295;40.182;44.498;2023-07-22T06:01:11;10.2;;;3.9;;
80868;SDS011;70295;40.182;44.498;2023-07-22T06:03:11;10;;;4.2;;
80868;SDS011;70295;40.182;44.498;2023-07-22T06:05:11;8.6;;;3.9;;
80868;SDS011;70295;40.182;44.498;2023-07-22T06:07:11;7.8;;;3.6;;
80868;SDS011;70295;40.182;44.498;2023-07-22T06:09:11;9.5;;;3.7;;
80868;SDS011;70295;40.182;44.498;2023-07-22T06:11:11;6.7;;;3.6;;
80868;SDS011;70295;40.182;44.498;2023-07-22T06:13:11;8.4;;;4;;
80868;SDS011;70295;40.182;44.498;2023-07-22T06:15:11;8.5;;;3.9;;
80868;SDS011;70295;40.182;44.498;2023-07-22T06:17:11;9.3;;;4.6;;
80868;SDS011;70295;40.182;44.498;2023-07-22T06:19:11;7.2;;;4;;
80868;SDS011;70295;40.182;44.498;2023-07-22T06:21:11;9;;;4.5;;
80868;SDS011;70295;40.182;44.498;2023-07-22T06:23:11;9.3;;;4.1;;
80868;SDS011;70295;40.182;44.498;2023-07-22T06:25:11;9.2;;;4.2;;
80868;SDS011;70295;40.182;44.498;2023-07-22T06:27:11;8.9;;;4.4;;
80868;SDS011;70295;40.182;44.498;2023-07-22T06:29:11;6.5;;;3.9;;
80868;SDS011;70295;40.182;44.498;2023-07-22T06:31:11;9.3;;;4;;
80868;SDS011;70295;40.182;44.498;2023-07-22T06:33:11;9.6;;;4.2;;
80868;SDS011;70295;40.182;44.498;2023-07-22T06:35:12;8.7;;;3.9;;
80868;SDS011;70295;40.182;44.498;2023-07-22T06:37:11;7.6;;;4;;
80868;SDS011;70295;40.182;44.498;2023-07-22T06:39:12;7.6;;;3.8;;
80868;SDS011;70295;40.182;44.498;2023-07-22T06:41:12;8.8;;;4.3;;
80868;SDS011;70295;40.182;44.498;2023-07-22T06:43:11;8.7;;;3.9;;
80868;SDS011;70295;40.182;44.498;2023-07-22T06:45:11;7.6;;;3.9;;
80868;SDS011;70295;40.182;44.498;2023-07-22T06:47:11;7.8;;;3.8;;
80868;SDS011;70295;40.182;44.498;2023-07-22T06:49:11;10.1;;;4.1;;
80868;SDS011;70295;40.182;44.498;2023-07-22T06:51:12;7.1;;;4.1;;
80868;SDS011;70295;40.182;44.498;2023-07-22T06:53:11;8.3;;;3.9;;
80868;SDS011;70295;40.182;44.498;2023-07-22T06:55:11;7.4;;;3.3;;
80868;SDS011;70295;40.182;44.498;2023-07-22T06:57:11;7.2;;;3.8;;
80868;SDS011;70295;40.182;44.498;2023-07-22T06:59:11;7.6;;;3.8;;
80868;SDS011;70295;40.182;44.498;2023-07-22T07:01:11;9.8;;;3.5;;
80868;SDS011;70295;40.182;44.498;2023-07-22T07:03:11;6.2;;;3.4;;
80868;SDS011;70295;40.182;44.498;2023-07-22T07:05:11;5.8;;;3.3;;
80868;SDS011;70295;40.182;44.498;2023-07-22T07:07:11;8.7;;;3.3;;
80868;SDS011;70295;40.182;44.498;2023-07-22T07:09:11;6.7;;;3.1;;
80868;SDS011;70295;40.182;44.498;2023-07-22T07:11:11;8.2;;;3.3;;
80868;SDS011;70295;40.182;44.498;2023-07-22T07:13:11;6.9;;;3.7;;
80868;SDS011;70295;40.182;44.498;2023-07-22T07:15:12;7.1;;;3.3;;
80868;SDS011;70295;40.182;44.498;2023-07-22T07:17:11;8.4;;;3.5;;
80868;SDS011;70295;40.182;44.498;2023-07-22T07:19:11;7.9;;;4;;
80868;SDS011;70295;40.182;44.498;2023-07-22T07:21:11;7.7;;;3.3;;
80868;SDS011;70295;40.182;44.498;2023-07-22T07:23:16;6.6;;;3.5;;
80868;SDS011;70295;40.182;44.498;2023-07-22T07:25:11;9;;;3.5;;
80868;SDS011;70295;40.182;44.498;2023-07-22T07:27:11;6;;;3.4;;
80868;SDS011;70295;40.182;44.498;2023-07-22T07:29:11;6.6;;;3.3;;
80868;SDS011;70295;40.182;44.498;2023-07-22T07:31:11;11.4;;;4.1;;
80868;SDS011;70295;40.182;44.498;2023-07-22T07:33:11;8.8;;;3.9;;
80868;SDS011;70295;40.182;44.498;2023-07-22T07:35:11;11;;;3.8;;
80868;SDS011;70295;40.182;44.498;2023-07-22T07:37:11;7.8;;;3.7;;
80868;SDS011;70295;40.182;44.498;2023-07-22T07:39:12;8.3;;;3.9;;
80868;SDS011;70295;40.182;44.498;2023-07-22T07:41:11;8.1;;;3.7;;
80868;SDS011;70295;40.182;44.498;2023-07-22T07:43:11;9.7;;;3.3;;
80868;SDS011;70295;40.182;44.498;2023-07-22T07:45:11;10.6;;;3.5;;
80868;SDS011;70295;40.182;44.498;2023-07-22T07:47:11;6.7;;;3;;
80868;SDS011;70295;40.182;44.498;2023-07-22T07:49:11;5.7;;;3;;
80868;SDS011;70295;40.182;44.498;2023-07-22T07:51:12;7.6;;;3.4;;
80868;SDS011;70295;40.182;44.498;2023-07-22T07:53:11;7.3;;;3.8;;
80868;SDS011;70295;40.182;44.498;2023-07-22T07:55:11;6.9;;;3.6;;
80868;SDS011;70295;40.182;44.498;2023-07-22T07:57:11;5.1;;;3.6;;
80868;SDS011;70295;40.182;44.498;2023-07-22T07:59:11;6.3;;;3.1;;
80868;SDS011;70295;40.182;44.498;2023-07-22T08:01:11;7.8;;;3.7;;
80868;SDS011;70295;40.182;44.498;2023-07-22T08:03:11;8.5;;;3.8;;
80868;SDS011;70295;40.182;44.498;2023-07-22T08:05:12;8;;;3.5;;
80868;SDS011;70295;40.182;44.498;2023-07-22T08:07:14;6.7;;;3.4;;
80868;SDS011;70295;40.182;44.498;2023-07-22T08:09:11;11.2;;;4.6;;
80868;SDS011;70295;40.182;44.498;2023-07-22T08:11:13;8.6;;;4.2;;
80868;SDS011;70295;40.182;44.498;2023-07-22T08:13:11;8.3;;;3.7;;
80868;SDS011;70295;40.182;44.498;2023-07-22T08:15:11;9.6;;;3.7;;
80868;SDS011;70295;40.182;44.498;2023-07-22T08:17:11;10.1;;;3.9;;
80868;SDS011;70295;40.182;44.498;2023-07-22T08:19:11;8.1;;;3.5;;
80868;SDS011;70295;40.182;44.498;2023-07-22T08:21:11;6.9;;;3.8;;
80868;SDS011;70295;40.182;44.498;2023-07-22T08:23:11;10.1;;;3.7;;
80868;SDS011;70295;40.182;44.498;2023-07-22T08:25:11;10.8;;;4.7;;
80868;SDS011;70295;40.182;44.498;2023-07-22T08:27:11;8.7;;;3.6;;
80868;SDS011;70295;40.182;44.498;2023-07-22T08:29:11;18.7;;;4.4;;
80868;SDS011;70295;40.182;44.498;2023-07-22T08:31:11;7.2;;;3.4;;
80868;SDS011;70295;40.182;44.498;2023-07-22T08:33:12;8.3;;;3.7;;
80868;SDS011;70295;40.182;44.498;2023-07-22T08:35:11;7.5;;;3.7;;
80868;SDS011;70295;40.182;44.498;2023-07-22T08:37:11;7.2;;;3.9;;
80868;SDS011;70295;40.182;44.498;2023-07-22T08:39:11;14.2;;;4.8;;
80868;SDS011;70295;40.182;44.498;2023-07-22T08:43:12;10.5;;;3.7;;
80868;SDS011;70295;40.182;44.498;2023-07-22T08:45:12;8.9;;;3.5;;
80868;SDS011;70295;40.182;44.498;2023-07-22T08:47:14;6.8;;;3.6;;
80868;SDS011;70295;40.182;44.498;2023-07-22T08:49:12;9.2;;;3.8;;
80868;SDS011;70295;40.182;44.498;2023-07-22T08:51:16;8.9;;;3.8;;
80868;SDS011;70295;40.182;44.498;2023-07-22T08:53:12;11.3;;;4.2;;
80868;SDS011;70295;40.182;44.498;2023-07-22T08:55:11;7.9;;;4.1;;
80868;SDS011;70295;40.182;44.498;2023-07-22T08:57:11;11.5;;;4.2;;
80868;SDS011;70295;40.182;44.498;2023-07-22T08:59:11;7.2;;;3.6;;
80868;SDS011;70295;40.182;44.498;2023-07-22T09:01:11;13.1;;;4.1;;
80868;SDS011;70295;40.182;44.498;2023-07-22T09:03:11;7.6;;;3.8;;
80868;SDS011;70295;40.182;44.498;2023-07-22T09:05:11;9.9;;;3.6;;
80868;SDS011;70295;40.182;44.498;2023-07-22T09:07:12;13.2;;;4;;
80868;SDS011;70295;40.182;44.498;2023-07-22T09:09:12;11.2;;;3.9;;
80868;SDS011;70295;40.182;44.498;2023-07-22T09:11:11;19.2;;;5.1;;
80868;SDS011;70295;40.182;44.498;2023-07-22T09:13:11;10.8;;;3.6;;
80868;SDS011;70295;40.182;44.498;2023-07-22T09:15:12;9.7;;;3.8;;
80868;SDS011;70295;40.182;44.498;2023-07-22T09:17:11;10.1;;;4;;
80868;SDS011;70295;40.182;44.498;2023-07-22T09:19:11;10.4;;;3.7;;
80868;SDS011;70295;40.182;44.498;2023-07-22T09:21:12;9.9;;;3.6;;
80868;SDS011;70295;40.182;44.498;2023-07-22T09:23:11;10.8;;;3.9;;
80868;SDS011;70295;40.182;44.498;2023-07-22T09:27:11;8.7;;;3.5;;
80868;SDS011;70295;40.182;44.498;2023-07-22T09:29:11;8.8;;;3.6;;
80868;SDS011;70295;40.182;44.498;2023-07-22T09:31:11;7.7;;;3.2;;
80868;SDS011;70295;40.182;44.498;2023-07-22T09:35:11;8.4;;;3.8;;
80868;SDS011;70295;40.182;44.498;2023-07-22T09:37:11;9;;;4.3;;
80868;SDS011;70295;40.182;44.498;2023-07-22T09:39:11;10.9;;;3.9;;
80868;SDS011;70295;40.182;44.498;2023-07-22T09:41:11;10.5;;;4;;
80868;SDS011;70295;40.182;44.498;2023-07-22T09:43:12;14.6;;;4.7;;
80868;SDS011;70295;40.182;44.498;2023-07-22T09:45:11;12.7;;;4.2;;
80868;SDS011;70295;40.182;44.498;2023-07-22T09:47:11;13.4;;;4.8;;
80868;SDS011;70295;40.182;44.498;2023-07-22T09:49:12;11.5;;;4.5;;
80868;SDS011;70295;40.182;44.498;2023-07-22T09:51:13;12.2;;;3.8;;
80868;SDS011;70295;40.182;44.498;2023-07-22T09:55:11;11.3;;;4.1;;
80868;SDS011;70295;40.182;44.498;2023-07-22T09:57:12;8.9;;;4;;
80868;SDS011;70295;40.182;44.498;2023-07-22T09:59:12;8.8;;;4;;
80868;SDS011;70295;40.182;44.498;2023-07-22T10:01:13;8.4;;;3.6;;
80868;SDS011;70295;40.182;44.498;2023-07-22T10:03:12;11.4;;;4.3;;
80868;SDS011;70295;40.182;44.498;2023-07-22T10:05:14;8.8;;;4.3;;
80868;SDS011;70295;40.182;44.498;2023-07-22T10:07:11;9.6;;;4.5;;
80868;SDS011;70295;40.182;44.498;2023-07-22T10:09:12;7.6;;;3.9;;
80868;SDS011;70295;40.182;44.498;2023-07-22T10:11:11;10.8;;;4;;
80868;SDS011;70295;40.182;44.498;2023-07-22T10:13:11;9;;;4.6;;
80868;SDS011;70295;40.182;44.498;2023-07-22T10:15:13;9.1;;;4;;
80868;SDS011;70295;40.182;44.498;2023-07-22T10:17:11;7.9;;;4;;
80868;SDS011;70295;40.182;44.498;2023-07-22T10:19:11;13.8;;;4.4;;
80868;SDS011;70295;40.182;44.498;2023-07-22T10:21:11;14.7;;;5.1;;
80868;SDS011;70295;40.182;44.498;2023-07-22T10:23:11;11.2;;;4.4;;
80868;SDS011;70295;40.182;44.498;2023-07-22T10:25:13;12.8;;;4.3;;
80868;SDS011;70295;40.182;44.498;2023-07-22T10:27:11;8;;;4.2;;
80868;SDS011;70295;40.182;44.498;2023-07-22T10:29:11;11.6;;;4.4;;
80868;SDS011;70295;40.182;44.498;2023-07-22T10:31:11;9.8;;;4.2;;
80868;SDS011;70295;40.182;44.498;2023-07-22T10:33:11;10.1;;;5.1;;
80868;SDS011;70295;40.182;44.498;2023-07-22T10:35:13;9.4;;;4.4;;
80868;SDS011;70295;40.182;44.498;2023-07-22T10:37:12;11.9;;;4.7;;
80868;SDS011;70295;40.182;44.498;2023-07-22T10:39:17;7.1;;;4.5;;
80868;SDS011;70295;40.182;44.498;2023-07-22T10:41:13;9.9;;;4.7;;
80868;SDS011;70295;40.182;44.498;2023-07-22T10:43:12;12;;;4.2;;
80868;SDS011;70295;40.182;44.498;2023-07-22T10:47:11;10.2;;;4.1;;
80868;SDS011;70295;40.182;44.498;2023-07-22T10:49:17;9.7;;;4.3;;
80868;SDS011;70295;40.182;44.498;2023-07-22T10:51:12;8.5;;;4.2;;
80868;SDS011;70295;40.182;44.498;2023-07-22T10:53:12;9.1;;;4.3;;
80868;SDS011;70295;40.182;44.498;2023-07-22T10:59:12;11.9;;;4.2;;
80868;SDS011;70295;40.182;44.498;2023-07-22T11:03:12;9.2;;;4.3;;
80868;SDS011;70295;40.182;44.498;2023-07-22T11:05:12;12.5;;;4.5;;
80868;SDS011;70295;40.182;44.498;2023-07-22T11:07:11;8.5;;;4.2;;
80868;SDS011;70295;40.182;44.498;2023-07-22T11:11:11;9.3;;;3.9;;
80868;SDS011;70295;40.182;44.498;2023-07-22T11:13:12;11.2;;;4;;
80868;SDS011;70295;40.182;44.498;2023-07-22T11:15:11;9.2;;;4.1;;
80868;SDS011;70295;40.182;44.498;2023-07-22T11:17:11;8.1;;;4.5;;
80868;SDS011;70295;40.182;44.498;2023-07-22T11:19:12;9.4;;;4.3;;
80868;SDS011;70295;40.182;44.498;2023-07-22T11:21:12;8.5;;;4.3;;
80868;SDS011;70295;40.182;44.498;2023-07-22T11:23:11;10.1;;;4;;
80868;SDS011;70295;40.182;44.498;2023-07-22T11:25:16;7.9;;;4.2;;
80868;SDS011;70295;40.182;44.498;2023-07-22T11:27:11;9.2;;;4;;
80868;SDS011;70295;40.182;44.498;2023-07-22T11:29:12;7.7;;;4.1;;
80868;SDS011;70295;40.182;44.498;2023-07-22T11:31:11;9.3;;;4.1;;
80868;SDS011;70295;40.182;44.498;2023-07-22T11:33:11;7.6;;;3.8;;
80868;SDS011;70295;40.182;44.498;2023-07-22T11:35:11;15.9;;;5.4;;
80868;SDS011;70295;40.182;44.498;2023-07-22T11:37:11;10.6;;;3.9;;
80868;SDS011;70295;40.182;44.498;2023-07-22T11:39:12;10.6;;;3.7;;
80868;SDS011;70295;40.182;44.498;2023-07-22T11:41:11;15.1;;;4.6;;
80868;SDS011;70295;40.182;44.498;2023-07-22T11:43:11;12.2;;;4.4;;
80868;SDS011;70295;40.182;44.498;2023-07-22T11:45:11;10.2;;;3.7;;
80868;SDS011;70295;40.182;44.498;2023-07-22T11:47:11;9.8;;;4.1;;
80868;SDS011;70295;40.182;44.498;2023-07-22T11:49:11;8.4;;;4;;
80868;SDS011;70295;40.182;44.498;2023-07-22T11:51:11;6.6;;;4;;
80868;SDS011;70295;40.182;44.498;2023-07-22T11:53:11;9.3;;;4.2;;
80868;SDS011;70295;40.182;44.498;2023-07-22T11:55:12;10.9;;;4.1;;
80868;SDS011;70295;40.182;44.498;2023-07-22T11:59:11;10.3;;;4.9;;
80868;SDS011;70295;40.182;44.498;2023-07-22T12:01:12;9.9;;;4.2;;
80868;SDS011;70295;40.182;44.498;2023-07-22T12:03:11;11.2;;;4.4;;
80868;SDS011;70295;40.182;44.498;2023-07-22T12:05:12;12.3;;;3.8;;
80868;SDS011;70295;40.182;44.498;2023-07-22T12:09:11;11.7;;;4.3;;
80868;SDS011;70295;40.182;44.498;2023-07-22T12:13:11;10.9;;;4.3;;
80868;SDS011;70295;40.182;44.498;2023-07-22T12:15:13;13.6;;;4.1;;
80868;SDS011;70295;40.182;44.498;2023-07-22T12:17:11;12.2;;;4.1;;
80868;SDS011;70295;40.182;44.498;2023-07-22T12:19:11;8.2;;;3.9;;
80868;SDS011;70295;40.182;44.498;2023-07-22T12:21:11;8.1;;;4;;
80868;SDS011;70295;40.182;44.498;2023-07-22T12:23:11;9;;;4;;
80868;SDS011;70295;40.182;44.498;2023-07-22T12:25:11;12.4;;;4.7;;
80868;SDS011;70295;40.182;44.498;2023-07-22T12:27:11;12.8;;;4.4;;
80868;SDS011;70295;40.182;44.498;2023-07-22T12:29:11;13.8;;;4.6;;
80868;SDS011;70295;40.182;44.498;2023-07-22T12:31:11;13.5;;;4.4;;
80868;SDS011;70295;40.182;44.498;2023-07-22T12:33:11;12.1;;;4.4;;
80868;SDS011;70295;40.182;44.498;2023-07-22T12:35:11;7;;;3.6;;
80868;SDS011;70295;40.182;44.498;2023-07-22T12:37:11;9.9;;;4.4;;
80868;SDS011;70295;40.182;44.498;2023-07-22T12:39:11;10.4;;;4;;